A- A+ FrançaisEnglishEspañol中国

Services sur Internet Soldes sur Internet Des idées de cadeaux Météo Météo aéro

La météo à : Autours de vous Tarbes-Lourdes-PyrénéesPau-PyrénéesAlbertvilleHyeres-Le-Palyvestre

manche à air

La météo aéronautique pour les pilotes, la préparation du vol avec les METAR (METeorological Aerodrome Report, message d'observation des conditions météorologiques pour l'aviation) et Les TAF (Terminal Aerodrome Forecast : message de prévision à court terme des conditions météorologiques pour l'aviation). Et les autres ressources comme les VAC (Visual Approch Chart) et les NOTAM (Notice To Airman) pour préprer les vols.

Aéroport Vastervas Hasslo (Suède) / OACI ESOW/ IATA VST

L'altitude de l'aéroport Vastervas Hasslo est de 6 m = 20 ft. Il est situé à proximité de Stockholm Västerås (Suède). La météo générale à 5 jours est disponible pour Västerås Kommun situé à 4.2 km.

METAR de l'aéroport Vastervas Hasslo - ESOW

ESOW 100050Z AUTO 33008KT 9999 NCD M02/M05 Q1003

Décodage du METAR de l'aéroport Vastervas Hasslo (SE)

METAR émis par ESOW le mardi 10 décembre 2019 à 00:50 heure TU. C'est un METAR généré automatiquement. Attention ce METAR est obsolète car il a été émis il y a 21 heure et 44 minutes.

La visibilité est de supérieure à 10 km = supérieure à 6.2 sm.

La température est de -2°C = 28 °F et le point rosée est de -5°C = 23 °F . Ce qui correspond à 80% d'humidité relative.

Le QNH est de 1003 hPa = 29.62 inHg

Vent de 8 kt = 15 km/h, orienté à 330°.

Pas de nuages.

TAF de l'aéroport Vastervas Hasslo - ESOW

ESOW 011443Z 0115/0119 VRB02KT 0250 FG VV002 PROB40 0115/0117 2000 BR SCT002 TEMPO 0117/0119 5000 -DZ BR FEW002 BKN030

ESOW 011443Z 0115/0119 VRB02KT 0250 brouillard VV002 probabilité de 40% d'avoir 0115/0117 2000 brume nuages épars à 002 temporairement 0117/0119 5000 faible DZ brume quelques nuages à 002 couverture nuageuse fragmentée à 030

Aéroport à proximité de Vastervas Hasslo

Météo générale à 5 jours à Västerås Kommun (4.2 km)Aéroport Eskiltuna (27 km)Aéroport Arboga (46 km)Aéroport Uppsala (64 km)Aéroport Stockholm Arlanda (73 km)Aéroport Stockholm Bronna (78 km)Aéroport Stockholm Skavsta (90 km)

VAC de l'aéroport Vastervas Hasslo - ESOW

La carte d'approche à vue (VAC Visual Approah Chart) est fournie sans aucune garantie de son actualité. Le pilote est le seul responsable de la vérification de sa validité avant de l'utiliser opérationnellement pour préparer un vol ou l'utiliser lors de sa navigation.

VAC de ESOW

Vue aérienne de l'aéroport Vastervas Hasslo

NOTAM de l'aéroport Vastervas Hasslo

Les NOTAM sont fournis sans aucune garantie de leur actualité. Le pilote est le seul responsable de la vérification de sa validité avant de l'utiliser opérationnellement pour préparer un vol ou l'utiliser lors de sa navigation.

Pas de NOTAM

Sources des données